createdAt,value
2018-07-20T00:02:49.325Z,21.30
2018-07-20T00:05:18.081Z,21.30
2018-07-20T00:07:47.110Z,21.30
2018-07-20T00:10:15.808Z,21.30
2018-07-20T00:12:44.538Z,21.40
2018-07-20T00:15:13.220Z,21.30
2018-07-20T00:17:41.941Z,21.30
2018-07-20T00:20:10.620Z,21.30
2018-07-20T00:22:39.335Z,21.30
2018-07-20T00:25:08.057Z,21.30
2018-07-20T00:30:05.242Z,21.30
2018-07-20T00:35:02.408Z,21.30
2018-07-20T00:39:59.608Z,21.40
2018-07-20T00:42:28.329Z,21.40
2018-07-20T00:44:57.039Z,21.30
2018-07-20T00:47:25.789Z,21.40
2018-07-20T00:49:54.486Z,21.30
2018-07-20T00:52:24.243Z,21.30
2018-07-20T00:54:53.041Z,21.20
2018-07-20T00:57:21.807Z,21.20
2018-07-20T00:59:50.457Z,21.20
2018-07-20T01:02:19.245Z,21.20
2018-07-20T01:04:47.953Z,21.10
2018-07-20T01:07:16.666Z,21.20
2018-07-20T01:09:45.355Z,21.20
2018-07-20T01:12:14.138Z,21.20
2018-07-20T01:14:42.875Z,21.20
2018-07-20T01:17:11.813Z,21.20
2018-07-20T01:19:40.511Z,21.10
2018-07-20T01:22:09.213Z,21.00
2018-07-20T01:24:37.976Z,20.90
2018-07-20T01:29:35.075Z,20.90
2018-07-20T01:32:03.792Z,20.90
2018-07-20T01:34:32.515Z,20.80
2018-07-20T01:37:01.215Z,20.80
2018-07-20T01:39:29.992Z,20.80
2018-07-20T01:41:58.665Z,20.80
2018-07-20T01:46:55.829Z,20.80
2018-07-20T01:51:52.992Z,20.90
2018-07-20T01:56:50.212Z,21.00
2018-07-20T01:59:18.905Z,21.00
2018-07-20T02:01:47.585Z,21.00
2018-07-20T02:04:16.292Z,21.10
2018-07-20T02:06:45.010Z,21.10
2018-07-20T02:11:42.109Z,21.10
2018-07-20T02:14:10.839Z,21.00
2018-07-20T02:24:04.786Z,20.80
2018-07-20T02:29:02.004Z,20.70
2018-07-20T02:31:30.677Z,20.70
2018-07-20T02:36:27.820Z,20.60
2018-07-20T02:38:56.602Z,20.50
2018-07-20T02:43:54.116Z,20.40
2018-07-20T02:46:22.781Z,20.40
2018-07-20T02:48:51.533Z,20.40
2018-07-20T02:53:48.759Z,20.40
2018-07-20T02:56:17.490Z,20.40
2018-07-20T02:58:46.227Z,20.40
2018-07-20T03:01:14.955Z,20.40
2018-07-20T03:03:43.706Z,20.40
2018-07-20T03:06:12.450Z,20.40
2018-07-20T03:08:41.181Z,20.40
2018-07-20T03:11:10.848Z,20.40
2018-07-20T03:13:39.593Z,20.40
2018-07-20T03:16:08.312Z,20.50
2018-07-20T03:18:37.063Z,20.40
2018-07-20T03:21:05.886Z,20.40
2018-07-20T03:26:03.202Z,20.40
2018-07-20T03:28:32.014Z,20.40
2018-07-20T03:31:00.750Z,20.40
2018-07-20T03:35:57.871Z,20.30
2018-07-20T03:38:26.611Z,20.20
2018-07-20T03:45:52.133Z,20.00
2018-07-20T03:48:20.854Z,19.90
2018-07-20T03:50:49.559Z,20.00
2018-07-20T03:53:18.310Z,19.90
2018-07-20T03:58:15.517Z,19.90
2018-07-20T04:00:44.304Z,19.90
2018-07-20T04:03:12.973Z,19.90
2018-07-20T04:05:41.761Z,19.90
2018-07-20T04:08:10.492Z,19.90
2018-07-20T04:10:39.230Z,19.90
2018-07-20T04:13:08.041Z,20.00
2018-07-20T04:15:36.788Z,20.00
2018-07-20T04:23:09.864Z,20.20
2018-07-20T04:28:07.025Z,20.10
2018-07-20T04:30:35.793Z,20.20
2018-07-20T04:33:04.519Z,20.10
2018-07-20T04:35:33.184Z,20.20
2018-07-20T04:38:01.865Z,20.10
2018-07-20T04:40:31.293Z,20.10
2018-07-20T04:42:59.974Z,20.10
2018-07-20T04:45:29.257Z,20.00
2018-07-20T04:47:57.950Z,19.90
2018-07-20T04:50:26.658Z,19.90
2018-07-20T04:52:55.377Z,19.80
2018-07-20T04:55:24.099Z,19.80
2018-07-20T04:57:52.822Z,19.80
2018-07-20T05:02:49.953Z,16.00
2018-07-20T05:05:18.712Z,19.80
2018-07-20T05:07:47.421Z,19.80
2018-07-20T05:10:16.150Z,20.00
2018-07-20T05:12:44.881Z,20.10
2018-07-20T05:15:13.601Z,20.10
2018-07-20T05:17:42.309Z,20.20
2018-07-20T05:20:11.006Z,20.30
2018-07-20T05:22:39.748Z,20.30
2018-07-20T05:25:08.455Z,20.30
2018-07-20T05:27:37.186Z,20.50
2018-07-20T05:32:35.568Z,20.50
2018-07-20T05:35:04.919Z,20.70
2018-07-20T05:37:33.613Z,20.60
2018-07-20T05:40:02.416Z,20.70
2018-07-20T05:42:31.147Z,20.70
2018-07-20T05:44:59.892Z,20.70
2018-07-20T05:47:28.626Z,21.00
2018-07-20T05:49:57.372Z,21.60
2018-07-20T05:52:26.094Z,22.00
2018-07-20T05:57:23.483Z,22.30
2018-07-20T05:59:52.178Z,22.30
2018-07-20T06:02:20.997Z,22.50
2018-07-20T06:04:49.675Z,23.00
2018-07-20T06:09:46.741Z,23.40
2018-07-20T06:14:43.974Z,24.30
2018-07-20T06:17:12.669Z,24.70
2018-07-20T06:19:41.406Z,25.60
2018-07-20T06:22:10.173Z,25.80
2018-07-20T06:24:38.840Z,25.80
2018-07-20T06:27:07.544Z,26.30
2018-07-20T06:29:36.282Z,27.30
2018-07-20T06:34:33.389Z,28.60
2018-07-20T06:37:02.077Z,28.10
2018-07-20T06:39:30.853Z,27.90
2018-07-20T06:41:59.579Z,27.40
2018-07-20T06:44:28.269Z,26.90
2018-07-20T06:46:56.965Z,26.60
2018-07-20T06:49:25.684Z,26.10
2018-07-20T06:51:54.420Z,25.90
2018-07-20T06:54:23.169Z,25.80
2018-07-20T06:56:51.894Z,25.80
2018-07-20T06:59:20.609Z,25.40
2018-07-20T07:04:17.765Z,24.70
2018-07-20T07:06:46.454Z,24.70
2018-07-20T07:09:15.172Z,24.50
2018-07-20T07:11:43.901Z,24.40
2018-07-20T07:14:12.587Z,24.40
2018-07-20T07:16:41.335Z,24.40
2018-07-20T07:19:10.058Z,24.40
2018-07-20T07:21:38.742Z,24.50
2018-07-20T07:24:07.523Z,24.40
2018-07-20T07:26:42.161Z,24.50
2018-07-20T07:29:10.869Z,24.50
2018-07-20T07:31:40.275Z,24.70
2018-07-20T07:34:09.001Z,27.70
2018-07-20T07:36:37.713Z,25.10
2018-07-20T07:39:08.892Z,25.40
2018-07-20T07:41:37.652Z,26.10
2018-07-20T07:44:06.798Z,26.90
2018-07-20T07:46:35.548Z,27.70
2018-07-20T07:49:04.252Z,28.40
2018-07-20T07:51:32.922Z,29.50
2018-07-20T07:54:01.626Z,30.30
2018-07-20T07:56:30.408Z,31.40
2018-07-20T07:58:59.100Z,31.40
2018-07-20T08:01:28.824Z,31.70
2018-07-20T08:03:57.652Z,31.60
2018-07-20T08:06:26.462Z,31.50
2018-07-20T08:08:55.152Z,31.90
2018-07-20T08:11:24.379Z,31.90
2018-07-20T08:13:53.145Z,32.80
2018-07-20T08:16:21.840Z,33.50
2018-07-20T08:18:50.589Z,33.40
2018-07-20T08:21:19.295Z,33.30
2018-07-20T08:23:48.071Z,32.90
2018-07-20T08:26:16.766Z,33.40
2018-07-20T08:28:45.488Z,34.60
2018-07-20T08:31:14.153Z,34.80
2018-07-20T08:33:42.858Z,35.30
2018-07-20T08:36:11.601Z,34.70
2018-07-20T08:38:40.313Z,34.60
2018-07-20T08:41:09.058Z,34.10
2018-07-20T08:48:34.545Z,37.00
2018-07-20T08:51:03.309Z,37.60
2018-07-20T08:53:32.045Z,37.10
2018-07-20T08:56:00.786Z,35.80
2018-07-20T08:58:29.513Z,35.70
2018-07-20T09:00:58.217Z,35.80
2018-07-20T09:03:26.898Z,36.80
2018-07-20T09:05:55.569Z,37.50
2018-07-20T09:08:24.251Z,38.10
2018-07-20T09:10:53.049Z,39.70
2018-07-20T09:13:21.840Z,40.80
2018-07-20T09:15:50.589Z,41.30
2018-07-20T09:20:47.909Z,40.80
2018-07-20T09:25:44.909Z,41.10
2018-07-20T09:28:13.692Z,41.10
2018-07-20T09:35:39.314Z,42.00
2018-07-20T09:38:08.047Z,42.30
2018-07-20T09:40:36.805Z,42.40
2018-07-20T09:43:05.546Z,42.60
2018-07-20T09:45:34.270Z,43.40
2018-07-20T09:48:02.955Z,43.80
2018-07-20T09:50:31.693Z,44.30
2018-07-20T09:53:00.413Z,44.30
2018-07-20T09:55:29.124Z,44.70
2018-07-20T09:57:57.940Z,44.90
2018-07-20T10:00:32.198Z,44.90
2018-07-20T10:05:29.384Z,44.90
2018-07-20T10:07:58.126Z,44.20
2018-07-20T10:10:26.865Z,44.10
2018-07-20T10:12:55.600Z,43.90
2018-07-20T10:15:24.355Z,43.90
2018-07-20T10:17:53.061Z,43.80
2018-07-20T10:20:21.922Z,43.90
2018-07-20T10:22:50.677Z,44.40
2018-07-20T10:30:17.506Z,44.70
2018-07-20T10:32:46.229Z,44.20
2018-07-20T10:35:14.953Z,43.40
2018-07-20T10:37:43.723Z,43.10
2018-07-20T10:45:09.736Z,43.10
2018-07-20T10:47:38.457Z,43.10
2018-07-20T10:52:36.023Z,42.60
2018-07-20T10:55:04.840Z,42.00
2018-07-20T10:57:33.509Z,41.40
2018-07-20T11:02:30.683Z,40.80
2018-07-20T11:07:27.952Z,40.60
2018-07-20T11:12:25.117Z,40.90
2018-07-20T11:22:19.061Z,39.40
2018-07-20T11:24:47.946Z,39.30
2018-07-20T11:37:10.256Z,38.70
2018-07-20T11:47:04.244Z,37.70
2018-07-20T11:56:58.160Z,37.20
2018-07-20T12:06:52.092Z,36.00
2018-07-20T12:11:49.199Z,35.70
2018-07-20T12:14:17.881Z,35.80
2018-07-20T12:24:12.611Z,35.20
2018-07-20T12:31:38.207Z,35.10
2018-07-20T12:34:07.710Z,35.00
2018-07-20T12:46:31.690Z,34.40
2018-07-20T12:49:00.393Z,34.30
2018-07-20T12:51:29.037Z,34.20
2018-07-20T12:53:57.713Z,34.20
2018-07-20T12:56:26.402Z,34.20
2018-07-20T12:58:56.091Z,34.10
2018-07-20T13:03:53.134Z,33.80
2018-07-20T13:16:15.516Z,33.20
2018-07-20T13:18:44.219Z,33.00
2018-07-20T13:21:12.924Z,33.10
2018-07-20T13:23:41.682Z,33.20
2018-07-20T13:31:07.102Z,33.90
2018-07-20T13:43:29.501Z,34.30
2018-07-20T13:45:58.265Z,34.20
2018-07-20T13:48:27.019Z,34.20
2018-07-20T13:50:56.346Z,34.10
2018-07-20T13:55:53.525Z,34.30
2018-07-20T13:58:22.235Z,34.20
2018-07-20T14:00:50.924Z,34.10
2018-07-20T14:03:19.821Z,34.00
2018-07-20T14:08:16.921Z,33.60
2018-07-20T14:10:45.590Z,33.50
2018-07-20T14:15:42.672Z,33.30
2018-07-20T14:18:11.346Z,33.10
2018-07-20T14:30:33.546Z,33.50
2018-07-20T14:33:02.349Z,33.60
2018-07-20T14:45:24.743Z,33.60
2018-07-20T14:50:21.869Z,33.40
2018-07-20T14:52:50.535Z,33.10
2018-07-20T14:55:19.267Z,33.00
2018-07-20T15:02:44.811Z,33.40
2018-07-20T15:05:13.481Z,33.40
2018-07-20T15:07:43.161Z,33.40
2018-07-20T15:10:11.867Z,33.10
2018-07-20T15:12:40.569Z,32.70
2018-07-20T15:15:09.598Z,32.40
2018-07-20T15:20:07.543Z,32.50
2018-07-20T15:22:36.275Z,32.50
2018-07-20T15:30:02.081Z,32.10
2018-07-20T15:33:33.991Z,32.00
2018-07-20T15:43:28.173Z,31.60
2018-07-20T15:46:05.861Z,31.50
2018-07-20T15:48:25.563Z,31.30
2018-07-20T15:50:54.290Z,31.10
2018-07-20T15:55:51.396Z,31.00
2018-07-20T15:58:20.087Z,31.10
2018-07-20T16:00:48.787Z,31.20
2018-07-20T16:03:17.566Z,31.20
2018-07-20T16:05:46.363Z,31.20
2018-07-20T16:08:15.536Z,31.20
2018-07-20T16:15:41.082Z,30.90
2018-07-20T16:18:09.887Z,30.90
2018-07-20T16:20:38.589Z,30.80
2018-07-20T16:23:07.313Z,30.80
2018-07-20T16:40:26.587Z,30.60
2018-07-20T16:42:55.281Z,30.50
2018-07-20T16:47:52.386Z,30.40
2018-07-20T16:50:21.069Z,30.30
2018-07-20T16:52:49.817Z,30.30
2018-07-20T17:05:12.113Z,30.00
2018-07-20T17:07:40.877Z,30.00
2018-07-20T17:20:03.376Z,29.50
2018-07-20T17:22:32.117Z,29.40
2018-07-20T17:37:23.021Z,29.20
2018-07-20T17:39:51.760Z,29.20
2018-07-20T17:47:17.389Z,29.10
2018-07-20T17:49:46.113Z,29.10
2018-07-20T17:52:14.833Z,29.10
2018-07-20T17:57:12.024Z,28.90
2018-07-20T17:59:40.692Z,28.90
2018-07-20T18:09:34.604Z,28.60
2018-07-20T18:12:03.334Z,28.50
2018-07-20T18:24:25.650Z,28.20
2018-07-20T18:26:54.389Z,28.10
2018-07-20T18:34:19.910Z,28.00
2018-07-20T18:36:48.607Z,27.90
2018-07-20T18:39:17.324Z,27.90
2018-07-20T18:44:14.505Z,27.70
2018-07-20T18:51:39.998Z,27.60
2018-07-20T19:00:41.822Z,27.40
2018-07-20T19:03:11.484Z,27.40
2018-07-20T19:13:05.580Z,27.20
2018-07-20T19:15:34.289Z,27.10
2018-07-20T19:18:03.263Z,27.00
2018-07-20T19:25:30.014Z,26.80
2018-07-20T19:27:58.852Z,26.70
2018-07-20T19:32:56.003Z,26.50
2018-07-20T19:37:53.156Z,26.30
2018-07-20T19:42:50.325Z,26.30
2018-07-20T19:57:46.184Z,25.90
2018-07-20T20:02:43.326Z,25.80
2018-07-20T20:05:12.066Z,25.70
2018-07-20T20:07:40.813Z,25.60
2018-07-20T20:10:09.602Z,25.50
2018-07-20T20:17:35.625Z,25.30
2018-07-20T20:20:07.004Z,25.30
2018-07-20T20:22:37.543Z,25.20
2018-07-20T20:35:01.434Z,25.00
2018-07-20T20:37:30.228Z,25.00
2018-07-20T20:49:52.670Z,24.70
2018-07-20T20:52:21.467Z,24.60
2018-07-20T20:54:50.309Z,24.60
2018-07-20T20:59:47.519Z,24.60
2018-07-20T21:04:44.646Z,24.40
2018-07-20T21:09:41.838Z,24.30
2018-07-20T21:14:40.021Z,24.10
2018-07-20T21:24:34.038Z,24.00
2018-07-20T21:29:31.237Z,23.80
2018-07-20T21:32:00.011Z,23.60
2018-07-20T21:36:57.194Z,23.60
2018-07-20T21:39:25.870Z,23.50
2018-07-20T21:46:54.993Z,23.40
2018-07-20T21:49:23.868Z,23.40
2018-07-20T22:04:36.466Z,23.10
2018-07-20T22:07:05.375Z,23.00
2018-07-20T22:09:35.313Z,23.00
2018-07-20T22:14:32.621Z,22.90
2018-07-20T22:17:01.372Z,22.80
2018-07-20T22:19:30.998Z,22.70
2018-07-20T22:21:59.728Z,22.70
2018-07-20T22:29:25.521Z,22.60
2018-07-20T22:34:38.668Z,22.60
2018-07-20T22:42:09.601Z,22.50
2018-07-20T22:57:27.445Z,22.30
2018-07-20T23:09:52.733Z,22.20
2018-07-20T23:12:21.458Z,22.10
2018-07-20T23:24:44.563Z,22.10
2018-07-20T23:32:13.259Z,22.10
2018-07-20T23:34:42.593Z,22.00
2018-07-20T23:42:08.062Z,21.90
2018-07-20T23:44:36.789Z,21.90
2018-07-20T23:47:05.493Z,21.80
2018-07-20T23:49:34.280Z,21.80
2018-07-20T23:52:03.002Z,21.80
2018-07-20T23:54:31.732Z,21.70
2018-07-20T23:57:00.446Z,21.70
2018-07-20T23:59:29.161Z,21.70
